createdAt,value
2022-11-30T00:00:50.225Z,101962.88
2022-11-30T00:03:37.949Z,101972.00
2022-11-30T00:06:25.925Z,101974.91
2022-11-30T00:09:13.459Z,101983.47
2022-11-30T00:12:00.838Z,101980.69
2022-11-30T00:14:48.452Z,101977.44
2022-11-30T00:17:35.940Z,101983.38
2022-11-30T00:20:23.811Z,101981.16
2022-11-30T00:23:11.164Z,101981.75
2022-11-30T00:26:04.492Z,101989.97
2022-11-30T00:28:51.899Z,101987.75
2022-11-30T00:31:39.288Z,101990.59
2022-11-30T00:34:26.679Z,101989.78
2022-11-30T00:37:14.899Z,101983.97
2022-11-30T00:40:02.239Z,101991.41
2022-11-30T00:42:50.038Z,101986.47
2022-11-30T00:45:37.464Z,101983.38
2022-11-30T00:48:25.692Z,101978.69
2022-11-30T00:51:14.588Z,101984.97
2022-11-30T00:54:01.903Z,101981.25
2022-11-30T00:56:49.256Z,101977.63
2022-11-30T00:59:36.715Z,101983.22
2022-11-30T01:02:24.211Z,101985.22
2022-11-30T01:05:11.827Z,101988.34
2022-11-30T01:08:07.978Z,101990.72
2022-11-30T01:10:58.025Z,101988.56
2022-11-30T01:13:45.467Z,101996.16
2022-11-30T01:16:33.581Z,101985.91
2022-11-30T01:19:21.239Z,101979.41
2022-11-30T01:22:08.535Z,101972.31
2022-11-30T01:24:55.857Z,101966.84
2022-11-30T01:27:43.355Z,101963.72
2022-11-30T01:30:30.767Z,101962.66
2022-11-30T01:33:18.152Z,101953.00
2022-11-30T01:36:07.675Z,101949.66
2022-11-30T01:38:57.510Z,101945.94
2022-11-30T01:41:45.078Z,101948.03
2022-11-30T01:44:32.547Z,101947.91
2022-11-30T01:47:41.222Z,101943.94
2022-11-30T01:50:37.131Z,101952.94
2022-11-30T01:53:24.893Z,101941.03
2022-11-30T01:56:12.625Z,101940.34
2022-11-30T01:59:00.375Z,101939.84
2022-11-30T02:01:48.495Z,101940.91
2022-11-30T02:04:38.095Z,101941.03
2022-11-30T02:07:25.816Z,101936.72
2022-11-30T02:10:17.844Z,101941.47
2022-11-30T02:13:15.806Z,101945.13
2022-11-30T02:16:21.886Z,101938.25
2022-11-30T02:19:21.125Z,101937.97
2022-11-30T02:22:26.611Z,101933.59
2022-11-30T02:25:47.621Z,101926.03
2022-11-30T02:29:07.049Z,101926.47
2022-11-30T02:32:17.644Z,101929.72
2022-11-30T02:35:07.893Z,101930.44
2022-11-30T02:37:57.187Z,101929.53
2022-11-30T02:40:44.600Z,101934.97
2022-11-30T02:43:33.730Z,101924.53
2022-11-30T02:46:32.777Z,101924.19
2022-11-30T02:49:50.838Z,101928.72
2022-11-30T02:52:38.190Z,101931.16
2022-11-30T02:55:26.097Z,101936.38
2022-11-30T02:58:15.693Z,101935.09
2022-11-30T03:01:03.220Z,101943.91
2022-11-30T03:03:50.551Z,101930.94
2022-11-30T03:06:38.044Z,101938.97
2022-11-30T03:09:25.996Z,101943.09
2022-11-30T03:12:13.623Z,101942.06
2022-11-30T03:15:01.380Z,101937.53
2022-11-30T03:17:48.679Z,101946.50
2022-11-30T03:20:41.583Z,101943.69
2022-11-30T03:23:30.279Z,101943.91
2022-11-30T03:26:17.641Z,101944.16
2022-11-30T03:29:05.101Z,101948.59
2022-11-30T03:31:52.726Z,101951.50
2022-11-30T03:34:40.115Z,101956.72
2022-11-30T03:37:27.458Z,101955.22
2022-11-30T03:40:14.917Z,101957.66
2022-11-30T03:43:03.199Z,101945.78
2022-11-30T03:45:50.747Z,101950.69
2022-11-30T03:48:38.915Z,101950.91
2022-11-30T03:51:26.435Z,101947.88
2022-11-30T03:54:14.574Z,101958.56
2022-11-30T03:57:01.950Z,101951.84
2022-11-30T03:59:49.234Z,101946.75
2022-11-30T04:02:41.516Z,101944.31
2022-11-30T04:05:32.388Z,101942.53
2022-11-30T04:08:19.702Z,101943.94
2022-11-30T04:11:08.287Z,101938.59
2022-11-30T04:13:55.854Z,101940.69
2022-11-30T04:16:43.495Z,101931.50
2022-11-30T04:19:30.777Z,101927.66
2022-11-30T04:22:18.415Z,101925.56
2022-11-30T04:25:06.236Z,101919.63
2022-11-30T04:27:53.537Z,101923.50
2022-11-30T04:30:40.876Z,101928.47
2022-11-30T04:33:28.941Z,101920.34
2022-11-30T04:36:19.784Z,101924.75
2022-11-30T04:39:07.090Z,101912.44
2022-11-30T04:41:54.757Z,101923.50
2022-11-30T04:44:42.070Z,101931.50
2022-11-30T04:47:29.557Z,101931.75
2022-11-30T04:50:16.833Z,101926.06
2022-11-30T04:53:04.338Z,101927.09
2022-11-30T04:55:51.622Z,101925.56
2022-11-30T04:58:39.412Z,101939.44
2022-11-30T05:01:26.908Z,101932.44
2022-11-30T05:04:14.283Z,101926.16
2022-11-30T05:07:01.726Z,101935.00
2022-11-30T05:09:49.423Z,101935.00
2022-11-30T05:12:36.825Z,101940.69
2022-11-30T05:15:24.264Z,101939.53
2022-11-30T05:18:11.942Z,101946.97
2022-11-30T05:20:59.335Z,101941.28
2022-11-30T05:23:48.855Z,101944.19
2022-11-30T05:26:36.767Z,101940.81
2022-11-30T05:29:24.242Z,101940.69
2022-11-30T05:32:11.708Z,101945.69
2022-11-30T05:34:59.510Z,101943.47
2022-11-30T05:37:47.020Z,101952.91
2022-11-30T05:40:34.476Z,101951.59
2022-11-30T05:43:21.980Z,101954.06
2022-11-30T05:46:10.045Z,101956.97
2022-11-30T05:48:57.479Z,101962.91
2022-11-30T05:51:45.324Z,101956.03
2022-11-30T05:54:34.393Z,101956.84
2022-11-30T05:57:21.807Z,101967.22
2022-11-30T06:00:09.733Z,101970.00
2022-11-30T06:02:58.453Z,101971.53
2022-11-30T06:05:46.085Z,101968.84
2022-11-30T06:08:33.816Z,101972.19
2022-11-30T06:11:21.199Z,101985.13
2022-11-30T06:14:08.657Z,101983.72
2022-11-30T06:16:56.140Z,101980.59
2022-11-30T06:19:43.639Z,101987.31
2022-11-30T06:22:31.146Z,101984.75
2022-11-30T06:25:18.990Z,101983.72
2022-11-30T06:28:10.124Z,101983.28
2022-11-30T06:31:01.105Z,101991.28
2022-11-30T06:33:48.506Z,101994.78
2022-11-30T06:36:36.601Z,102001.50
2022-11-30T06:39:50.062Z,102004.44
2022-11-30T06:42:32.253Z,102005.81
2022-11-30T06:45:19.596Z,102003.13
2022-11-30T06:48:07.332Z,102002.00
2022-11-30T06:50:55.123Z,102008.72
2022-11-30T06:53:44.461Z,102003.13
2022-11-30T06:56:31.838Z,102004.66
2022-11-30T06:59:19.143Z,102011.75
2022-11-30T07:02:10.724Z,102010.22
2022-11-30T07:05:00.543Z,102007.44
2022-11-30T07:07:48.064Z,102011.75
2022-11-30T07:14:47.787Z,102014.66
2022-11-30T07:17:35.321Z,102014.22
2022-11-30T07:20:28.483Z,102020.22
2022-11-30T07:23:34.580Z,102031.03
2022-11-30T07:26:22.175Z,102026.50
2022-11-30T07:29:09.567Z,102030.47
2022-11-30T07:31:56.975Z,102031.41
2022-11-30T07:34:44.607Z,102027.00
2022-11-30T07:37:32.083Z,102028.84
2022-11-30T07:40:19.451Z,102022.09
2022-11-30T07:43:06.768Z,102027.56
2022-11-30T07:45:54.680Z,102025.94
2022-11-30T07:48:42.813Z,102033.72
2022-11-30T07:51:30.250Z,102028.72
2022-11-30T07:54:17.636Z,102033.38
2022-11-30T07:57:04.977Z,102033.50
2022-11-30T07:59:52.406Z,102032.13
2022-11-30T08:02:40.108Z,102036.28
2022-11-30T08:05:27.577Z,102035.47
2022-11-30T08:08:15.010Z,102038.63
2022-11-30T08:11:03.564Z,102046.41
2022-11-30T08:13:51.269Z,102032.22
2022-11-30T08:16:38.747Z,102034.78
2022-11-30T08:19:26.129Z,102039.53
2022-11-30T08:22:13.590Z,102046.53
2022-11-30T08:25:01.560Z,102038.97
2022-11-30T08:27:48.991Z,102043.97
2022-11-30T08:30:36.766Z,102040.47
2022-11-30T08:33:24.286Z,102049.19
2022-11-30T08:36:17.334Z,102047.34
2022-11-30T08:39:06.242Z,102045.22
2022-11-30T08:41:53.821Z,102046.53
2022-11-30T08:44:41.163Z,102048.59
2022-11-30T08:47:30.505Z,102051.06
2022-11-30T08:50:17.952Z,102052.91
2022-11-30T08:53:06.615Z,102063.41
2022-11-30T08:55:58.828Z,102063.28
2022-11-30T08:58:47.400Z,102068.84
2022-11-30T09:01:35.143Z,102070.28
2022-11-30T09:04:22.642Z,102079.34
2022-11-30T09:07:10.125Z,102079.78
2022-11-30T09:09:58.074Z,102076.00
2022-11-30T09:12:45.386Z,102075.16
2022-11-30T09:15:32.733Z,102072.72
2022-11-30T09:18:20.187Z,102085.88
2022-11-30T09:21:11.075Z,102088.28
2022-11-30T09:23:58.730Z,102087.59
2022-11-30T09:26:46.557Z,102085.88
2022-11-30T09:29:33.844Z,102082.78
2022-11-30T09:32:21.143Z,102086.06
2022-11-30T09:35:12.827Z,102078.72
2022-11-30T09:38:00.503Z,102082.34
2022-11-30T09:41:12.300Z,102097.03
2022-11-30T09:44:17.031Z,102091.53
2022-11-30T09:47:31.877Z,102092.81
2022-11-30T09:50:28.193Z,102096.56
2022-11-30T09:53:43.641Z,102085.13
2022-11-30T09:56:34.857Z,102083.06
2022-11-30T09:59:29.745Z,102079.34
2022-11-30T10:02:18.264Z,102079.44
2022-11-30T10:05:14.783Z,102084.56
2022-11-30T10:08:38.889Z,102084.91
2022-11-30T10:11:38.391Z,102078.41
2022-11-30T10:14:31.585Z,102083.28
2022-11-30T10:17:18.843Z,102089.00
2022-11-30T10:20:27.733Z,102087.25
2022-11-30T10:23:47.728Z,102085.13
2022-11-30T10:26:38.363Z,102083.66
2022-11-30T10:29:38.579Z,102082.59
2022-11-30T10:32:33.536Z,102079.72
2022-11-30T10:35:43.511Z,102077.38
2022-11-30T10:38:37.405Z,102073.75
2022-11-30T10:41:34.238Z,102066.66
2022-11-30T10:44:33.898Z,102073.16
2022-11-30T10:47:25.655Z,102076.66
2022-11-30T10:50:17.443Z,102079.94
2022-11-30T10:53:06.424Z,102080.31
2022-11-30T10:56:20.271Z,102076.56
2022-11-30T10:59:41.901Z,102084.31
2022-11-30T11:02:49.633Z,102080.97
2022-11-30T11:05:37.187Z,102085.66
2022-11-30T11:08:26.186Z,102080.53
2022-11-30T11:11:35.884Z,102091.22
2022-11-30T11:14:33.634Z,102088.78
2022-11-30T11:17:35.229Z,102093.09
2022-11-30T11:20:32.581Z,102094.13
2022-11-30T11:23:46.058Z,102090.25
2022-11-30T11:26:35.300Z,102100.53
2022-11-30T11:29:42.671Z,102103.19
2022-11-30T11:33:00.281Z,102107.38
2022-11-30T11:35:55.789Z,102101.56
2022-11-30T11:38:47.032Z,102106.31
2022-11-30T11:41:38.283Z,102113.31
2022-11-30T11:44:28.100Z,102108.31
2022-11-30T11:47:25.711Z,102100.75
2022-11-30T11:50:13.341Z,102103.41
2022-11-30T11:53:43.899Z,102104.84
2022-11-30T11:56:36.788Z,102100.63
2022-11-30T11:59:42.482Z,102102.38
2022-11-30T12:02:52.205Z,102108.41
2022-11-30T12:05:49.562Z,102105.16
2022-11-30T12:09:02.341Z,102116.56
2022-11-30T12:11:51.645Z,102111.88
2022-11-30T12:14:39.237Z,102116.78
2022-11-30T12:17:40.137Z,102121.69
2022-11-30T12:20:53.916Z,102118.53
2022-11-30T12:24:19.180Z,102120.19
2022-11-30T12:27:53.595Z,102121.78
2022-11-30T12:31:18.575Z,102116.69
2022-11-30T12:34:24.321Z,102127.28
2022-11-30T12:37:28.595Z,102126.69
2022-11-30T12:40:36.347Z,102126.78
2022-11-30T12:43:50.077Z,102122.81
2022-11-30T12:46:58.428Z,102118.16
2022-11-30T12:50:08.939Z,102125.25
2022-11-30T12:52:56.309Z,102125.59
2022-11-30T12:55:52.378Z,102120.25
2022-11-30T12:58:47.314Z,102123.97
2022-11-30T13:01:54.665Z,102125.97
2022-11-30T13:04:58.279Z,102122.78
2022-11-30T13:08:01.743Z,102113.72
2022-11-30T13:10:57.282Z,102117.09
2022-11-30T13:13:58.746Z,102117.91
2022-11-30T13:16:47.336Z,102120.72
2022-11-30T13:20:05.264Z,102114.66
2022-11-30T13:22:56.377Z,102112.09
2022-11-30T13:26:16.003Z,102113.28
2022-11-30T13:29:42.068Z,102119.91
2022-11-30T13:32:57.208Z,102111.28
2022-11-30T13:35:42.009Z,102116.72
2022-11-30T13:38:38.340Z,102115.53
2022-11-30T13:41:26.085Z,102122.16
2022-11-30T13:44:34.114Z,102119.63
2022-11-30T13:47:36.151Z,102130.25
2022-11-30T13:50:41.660Z,102127.31
2022-11-30T13:53:34.252Z,102130.69
2022-11-30T13:56:21.801Z,102133.97
2022-11-30T13:59:26.090Z,102138.56
2022-11-30T14:02:41.988Z,102141.94
2022-11-30T14:05:40.111Z,102145.19
2022-11-30T14:08:35.199Z,102144.06
2022-11-30T14:11:39.252Z,102144.78
2022-11-30T14:14:47.831Z,102153.84
2022-11-30T14:17:35.803Z,102149.53
2022-11-30T14:20:27.119Z,102148.72
2022-11-30T14:23:30.362Z,102152.34
2022-11-30T14:26:27.506Z,102153.53
2022-11-30T14:29:35.473Z,102164.22
2022-11-30T14:32:42.697Z,102160.25
2022-11-30T14:35:32.042Z,102167.34
2022-11-30T14:38:27.951Z,102163.84
2022-11-30T14:41:25.456Z,102164.56
2022-11-30T14:44:16.692Z,102176.41
2022-11-30T14:47:34.609Z,102164.66
2022-11-30T14:50:27.267Z,102168.38
2022-11-30T14:53:43.103Z,102183.88
2022-11-30T14:56:36.859Z,102177.59
2022-11-30T14:59:54.060Z,102176.56
2022-11-30T15:02:43.858Z,102184.81
2022-11-30T15:05:31.522Z,102183.41
2022-11-30T15:08:20.018Z,102182.94
2022-11-30T15:11:12.670Z,102184.91
2022-11-30T15:14:09.548Z,102192.22
2022-11-30T15:16:58.149Z,102190.47
2022-11-30T15:19:48.953Z,102177.69
2022-11-30T15:22:37.590Z,102189.94
2022-11-30T15:25:31.178Z,102180.63
2022-11-30T15:28:25.912Z,102202.63
2022-11-30T15:31:16.087Z,102197.88
2022-11-30T15:34:04.066Z,102200.84
2022-11-30T15:36:56.317Z,102199.72
2022-11-30T15:39:54.784Z,102204.47
2022-11-30T15:42:43.910Z,102203.75
2022-11-30T15:45:35.386Z,102202.84
2022-11-30T15:48:39.437Z,102205.28
2022-11-30T15:51:37.871Z,102211.78
2022-11-30T15:54:55.120Z,102210.75
2022-11-30T15:58:03.499Z,102209.00
2022-11-30T16:01:04.959Z,102211.34
2022-11-30T16:03:55.549Z,102210.25
2022-11-30T16:06:48.031Z,102214.91
2022-11-30T16:09:36.276Z,102217.59
2022-11-30T16:12:30.023Z,102222.47
2022-11-30T16:15:21.040Z,102229.34
2022-11-30T16:18:08.471Z,102231.78
2022-11-30T16:21:01.562Z,102229.69
2022-11-30T16:23:49.038Z,102234.09
2022-11-30T16:26:57.417Z,102238.09
2022-11-30T16:29:51.866Z,102239.25
2022-11-30T16:32:39.755Z,102231.22
2022-11-30T16:35:36.870Z,102241.50
2022-11-30T16:38:25.692Z,102242.75
2022-11-30T16:41:24.522Z,102248.53
2022-11-30T16:44:14.401Z,102239.47
2022-11-30T16:47:02.127Z,102248.91
2022-11-30T16:49:49.594Z,102258.38
2022-11-30T16:52:37.372Z,102257.75
2022-11-30T16:55:28.974Z,102262.66
2022-11-30T16:58:16.405Z,102272.63
2022-11-30T17:01:05.059Z,102268.03
2022-11-30T17:03:53.699Z,102262.81
2022-11-30T17:06:41.257Z,102266.25
2022-11-30T17:09:30.493Z,102268.94
2022-11-30T17:12:17.989Z,102279.66
2022-11-30T17:15:06.424Z,102275.38
2022-11-30T17:17:57.596Z,102280.72
2022-11-30T17:20:45.103Z,102276.97
2022-11-30T17:23:32.712Z,102282.31
2022-11-30T17:26:20.413Z,102289.91
2022-11-30T17:29:08.330Z,102288.75
2022-11-30T17:31:55.840Z,102295.59
2022-11-30T17:34:43.199Z,102295.00
2022-11-30T17:37:30.605Z,102302.69
2022-11-30T17:40:17.975Z,102308.03
2022-11-30T17:43:05.489Z,102310.06
2022-11-30T17:45:52.905Z,102317.94
2022-11-30T17:48:40.762Z,102315.84
2022-11-30T17:51:28.476Z,102325.13
2022-11-30T17:54:15.927Z,102324.47
2022-11-30T17:57:03.379Z,102325.50
2022-11-30T17:59:50.956Z,102332.28
2022-11-30T18:02:38.467Z,102330.03
2022-11-30T18:05:25.943Z,102332.91
2022-11-30T18:08:13.555Z,102332.59
2022-11-30T18:11:00.961Z,102339.72
2022-11-30T18:13:51.661Z,102341.34
2022-11-30T18:16:39.406Z,102345.44
2022-11-30T18:19:27.114Z,102343.88
2022-11-30T18:22:14.530Z,102349.59
2022-11-30T18:25:02.485Z,102348.34
2022-11-30T18:27:53.954Z,102354.13
2022-11-30T18:30:41.489Z,102356.75
2022-11-30T18:33:29.085Z,102348.78
2022-11-30T18:36:16.609Z,102351.25
2022-11-30T18:39:05.169Z,102355.34
2022-11-30T18:41:53.010Z,102357.34
2022-11-30T18:44:40.711Z,102355.47
2022-11-30T18:47:28.112Z,102364.41
2022-11-30T18:50:15.506Z,102361.94
2022-11-30T18:53:03.447Z,102366.47
2022-11-30T18:55:50.950Z,102368.13
2022-11-30T18:58:38.708Z,102369.84
2022-11-30T19:01:26.945Z,102372.66
2022-11-30T19:04:14.392Z,102372.03
2022-11-30T19:07:01.832Z,102375.09
2022-11-30T19:09:49.648Z,102379.41
2022-11-30T19:12:37.136Z,102381.50
2022-11-30T19:15:24.429Z,102388.91
2022-11-30T19:18:11.759Z,102382.25
2022-11-30T19:20:59.225Z,102390.28
2022-11-30T19:23:46.894Z,102389.97
2022-11-30T19:26:34.246Z,102393.22
2022-11-30T19:29:21.664Z,102391.59
2022-11-30T19:32:09.024Z,102398.81
2022-11-30T19:34:56.453Z,102399.84
2022-11-30T19:37:43.802Z,102412.19
2022-11-30T19:40:31.317Z,102410.75
2022-11-30T19:43:18.725Z,102413.44
2022-11-30T19:46:18.524Z,102410.19
2022-11-30T19:49:08.545Z,102406.56
2022-11-30T19:51:55.861Z,102405.31
2022-11-30T19:54:43.231Z,102415.63
2022-11-30T19:57:30.547Z,102417.63
2022-11-30T20:00:18.661Z,102416.44
2022-11-30T20:03:10.025Z,102413.00
2022-11-30T20:05:57.546Z,102414.47
2022-11-30T20:08:45.373Z,102423.25
2022-11-30T20:11:33.070Z,102426.75
2022-11-30T20:14:22.521Z,102416.25
2022-11-30T20:17:10.186Z,102425.94
2022-11-30T20:19:57.610Z,102428.78
2022-11-30T20:22:44.949Z,102429.94
2022-11-30T20:25:33.406Z,102433.22
2022-11-30T20:28:20.914Z,102432.63
2022-11-30T20:31:10.653Z,102440.66
2022-11-30T20:33:59.048Z,102448.09
2022-11-30T20:36:46.670Z,102449.28
2022-11-30T20:39:34.001Z,102443.41
2022-11-30T20:42:21.333Z,102447.66
2022-11-30T20:45:08.820Z,102451.81
2022-11-30T20:47:56.277Z,102453.00
2022-11-30T20:51:00.952Z,102453.00
2022-11-30T20:53:52.730Z,102453.00
2022-11-30T20:56:40.732Z,102459.53
2022-11-30T20:59:28.518Z,102455.31
2022-11-30T21:02:16.718Z,102452.63
2022-11-30T21:05:04.329Z,102448.38
2022-11-30T21:07:52.088Z,102458.84
2022-11-30T21:10:40.239Z,102455.13
2022-11-30T21:13:27.585Z,102454.31
2022-11-30T21:16:17.097Z,102453.50
2022-11-30T21:19:04.999Z,102449.50
2022-11-30T21:21:52.349Z,102462.63
2022-11-30T21:24:39.862Z,102447.19
2022-11-30T21:27:27.213Z,102463.44
2022-11-30T21:30:14.957Z,102457.66
2022-11-30T21:33:02.601Z,102455.81
2022-11-30T21:35:49.974Z,102459.88
2022-11-30T21:38:37.463Z,102464.28
2022-11-30T21:41:25.130Z,102471.53
2022-11-30T21:44:16.470Z,102467.19
2022-11-30T21:47:04.174Z,102454.03
2022-11-30T21:49:51.579Z,102463.22
2022-11-30T21:52:39.072Z,102468.59
2022-11-30T21:55:26.412Z,102469.47
2022-11-30T21:58:13.825Z,102466.94
2022-11-30T22:01:03.086Z,102465.31
2022-11-30T22:03:50.534Z,102462.06
2022-11-30T22:06:39.248Z,102469.63
2022-11-30T22:09:26.695Z,102465.75
2022-11-30T22:12:14.403Z,102470.22
2022-11-30T22:15:02.059Z,102471.25
2022-11-30T22:17:51.945Z,102476.00
2022-11-30T22:20:39.506Z,102475.22
2022-11-30T22:23:26.826Z,102476.00
2022-11-30T22:26:25.658Z,102471.94
2022-11-30T22:29:14.489Z,102477.06
2022-11-30T22:32:01.907Z,102475.84
2022-11-30T22:34:49.556Z,102476.53
2022-11-30T22:37:36.916Z,102484.97
2022-11-30T22:40:24.245Z,102480.03
2022-11-30T22:43:11.994Z,102485.38
2022-11-30T22:46:11.172Z,102481.47
2022-11-30T22:49:00.337Z,102477.16
2022-11-30T22:51:47.859Z,102483.13
2022-11-30T22:54:35.968Z,102476.56
2022-11-30T22:57:23.335Z,102477.81
2022-11-30T23:00:11.465Z,102472.25
2022-11-30T23:02:59.093Z,102470.91
2022-11-30T23:05:46.629Z,102464.09
2022-11-30T23:08:34.969Z,102467.97
2022-11-30T23:11:24.873Z,102466.16
2022-11-30T23:14:12.637Z,102469.00
2022-11-30T23:17:00.027Z,102460.81
2022-11-30T23:19:47.494Z,102473.06
2022-11-30T23:22:37.199Z,102466.56
2022-11-30T23:25:24.588Z,102465.13
2022-11-30T23:28:11.924Z,102468.00
2022-11-30T23:31:03.390Z,102465.13
2022-11-30T23:33:51.123Z,102471.72
2022-11-30T23:36:38.908Z,102472.34
2022-11-30T23:39:26.641Z,102474.41
2022-11-30T23:42:14.179Z,102469.31
2022-11-30T23:45:01.591Z,102478.16
2022-11-30T23:47:48.999Z,102478.16
2022-11-30T23:50:37.009Z,102480.69
2022-11-30T23:53:24.878Z,102477.56
2022-11-30T23:56:14.385Z,102477.38
2022-11-30T23:59:01.725Z,102467.94
